createdAt,value
2016-11-30T00:00:40.356Z,0
2016-11-30T00:01:20.998Z,0
2016-11-30T00:02:01.658Z,0
2016-11-30T00:02:42.315Z,0
2016-11-30T00:03:23.002Z,0
2016-11-30T00:04:03.682Z,0
2016-11-30T00:04:44.323Z,0
2016-11-30T00:05:24.989Z,0
2016-11-30T00:06:05.714Z,0
2016-11-30T00:06:46.357Z,0
2016-11-30T00:07:27.011Z,0
2016-11-30T00:08:07.639Z,0
2016-11-30T00:08:48.305Z,0
2016-11-30T00:09:29.029Z,0
2016-11-30T00:10:09.686Z,0
2016-11-30T00:10:50.401Z,0
2016-11-30T00:11:31.090Z,0
2016-11-30T00:12:11.748Z,0
2016-11-30T00:12:52.392Z,0
2016-11-30T00:13:33.045Z,0
2016-11-30T00:14:13.721Z,0
2016-11-30T00:14:54.450Z,0
2016-11-30T00:15:35.159Z,0
2016-11-30T00:16:15.824Z,0
2016-11-30T00:16:57.046Z,0
2016-11-30T00:17:37.749Z,0
2016-11-30T00:18:18.437Z,0
2016-11-30T00:18:59.153Z,0
2016-11-30T00:19:39.803Z,0
2016-11-30T00:20:20.441Z,0
2016-11-30T00:21:01.112Z,0
2016-11-30T00:21:41.798Z,0
2016-11-30T00:22:22.451Z,0
2016-11-30T00:23:03.154Z,0
2016-11-30T00:23:43.877Z,0
2016-11-30T00:24:24.578Z,0
2016-11-30T00:25:05.274Z,0
2016-11-30T00:25:45.962Z,0
2016-11-30T00:26:26.681Z,0
2016-11-30T00:27:07.337Z,0
2016-11-30T00:27:47.986Z,0
2016-11-30T00:28:28.629Z,0
2016-11-30T00:29:09.352Z,0
2016-11-30T00:29:50.012Z,0
2016-11-30T00:30:30.710Z,0
2016-11-30T00:31:11.351Z,0
2016-11-30T00:31:52.020Z,0
2016-11-30T00:32:32.730Z,0
2016-11-30T00:33:13.415Z,0
2016-11-30T00:33:54.091Z,0
2016-11-30T00:34:34.751Z,0
2016-11-30T00:35:15.452Z,0
2016-11-30T00:35:56.773Z,0
2016-11-30T00:36:37.399Z,0
2016-11-30T00:37:18.108Z,0
2016-11-30T00:37:58.792Z,0
2016-11-30T00:38:39.464Z,0
2016-11-30T00:39:20.160Z,0
2016-11-30T00:40:00.781Z,0
2016-11-30T00:40:41.427Z,0
2016-11-30T00:41:22.091Z,0
2016-11-30T00:42:02.742Z,0
2016-11-30T00:42:43.459Z,0
2016-11-30T00:43:24.147Z,0
2016-11-30T00:44:04.864Z,0
2016-11-30T00:44:45.553Z,0
2016-11-30T00:45:26.217Z,0
2016-11-30T00:46:06.916Z,0
2016-11-30T00:46:47.572Z,0
2016-11-30T00:47:28.290Z,0
2016-11-30T00:48:08.928Z,0
2016-11-30T00:48:49.588Z,0
2016-11-30T00:49:30.209Z,0
2016-11-30T00:50:10.917Z,0
2016-11-30T00:50:51.593Z,0
2016-11-30T00:51:32.258Z,0
2016-11-30T00:52:12.969Z,0
2016-11-30T00:52:53.667Z,0
2016-11-30T00:53:34.370Z,0
2016-11-30T00:54:15.044Z,0
2016-11-30T00:54:55.727Z,0
2016-11-30T00:55:36.399Z,0
2016-11-30T00:56:17.095Z,0
2016-11-30T00:56:57.773Z,0
2016-11-30T00:57:38.485Z,0
2016-11-30T00:58:19.202Z,0
2016-11-30T00:58:59.895Z,0
2016-11-30T00:59:40.544Z,0
2016-11-30T01:00:21.185Z,0
2016-11-30T01:01:01.881Z,0
2016-11-30T01:01:42.552Z,0
2016-11-30T01:02:23.249Z,0
2016-11-30T01:03:03.917Z,0
2016-11-30T01:03:44.556Z,0
2016-11-30T01:04:25.257Z,0
2016-11-30T01:05:05.942Z,0
2016-11-30T01:05:46.618Z,0
2016-11-30T01:06:27.275Z,0
2016-11-30T01:07:07.963Z,0
2016-11-30T01:07:48.650Z,0
2016-11-30T01:08:29.297Z,0
2016-11-30T01:09:09.985Z,0
2016-11-30T01:09:50.654Z,0
2016-11-30T01:10:31.290Z,0
2016-11-30T01:11:12.012Z,0
2016-11-30T01:11:52.729Z,0
2016-11-30T01:12:33.387Z,0
2016-11-30T01:13:14.042Z,0
2016-11-30T01:13:54.738Z,0
2016-11-30T01:14:35.431Z,0
2016-11-30T01:15:16.076Z,0
2016-11-30T01:15:56.755Z,0
2016-11-30T01:16:37.464Z,0
2016-11-30T01:17:18.084Z,0
2016-11-30T01:17:58.754Z,0
2016-11-30T01:18:39.449Z,0
2016-11-30T01:19:20.187Z,0
2016-11-30T01:20:00.881Z,0
2016-11-30T01:20:41.523Z,0
2016-11-30T01:21:22.219Z,0
2016-11-30T01:22:02.906Z,0
2016-11-30T01:22:43.591Z,0
2016-11-30T01:23:24.229Z,0
2016-11-30T01:24:04.910Z,0
2016-11-30T01:24:45.575Z,0
2016-11-30T01:25:26.251Z,0
2016-11-30T01:26:06.913Z,0
2016-11-30T01:26:47.563Z,0
2016-11-30T01:27:28.245Z,0
2016-11-30T01:28:08.892Z,0
2016-11-30T01:28:49.560Z,0
2016-11-30T01:29:30.266Z,0
2016-11-30T01:30:10.921Z,0
2016-11-30T01:30:51.614Z,0
2016-11-30T01:31:32.291Z,0
2016-11-30T01:32:12.997Z,0
2016-11-30T01:32:53.698Z,0
2016-11-30T01:33:34.327Z,0
2016-11-30T01:34:14.964Z,0
2016-11-30T01:34:55.632Z,0
2016-11-30T01:35:36.298Z,0
2016-11-30T01:36:16.994Z,0
2016-11-30T01:36:57.678Z,0
2016-11-30T01:37:38.332Z,0
2016-11-30T01:38:18.988Z,0
2016-11-30T01:38:59.711Z,0
2016-11-30T01:39:40.404Z,0
2016-11-30T01:40:21.066Z,0
2016-11-30T01:41:01.756Z,0
2016-11-30T01:41:42.368Z,0
2016-11-30T01:42:23.087Z,0
2016-11-30T01:43:03.720Z,0
2016-11-30T01:43:44.457Z,0
2016-11-30T01:44:25.064Z,0
2016-11-30T01:45:05.759Z,0
2016-11-30T01:45:46.445Z,0
2016-11-30T01:46:27.134Z,0
2016-11-30T01:47:07.803Z,0
2016-11-30T01:47:48.497Z,0
2016-11-30T01:48:29.181Z,0
2016-11-30T01:49:09.851Z,0
2016-11-30T01:49:50.558Z,0
2016-11-30T01:50:31.258Z,0
2016-11-30T01:51:11.979Z,0
2016-11-30T01:51:52.658Z,0
2016-11-30T01:52:33.365Z,0
2016-11-30T01:53:14.582Z,0
2016-11-30T01:53:54.729Z,0
2016-11-30T01:54:35.382Z,0
2016-11-30T01:55:16.115Z,0
2016-11-30T01:55:56.747Z,0
2016-11-30T01:56:37.433Z,0
2016-11-30T01:57:18.080Z,0
2016-11-30T01:57:58.739Z,0
2016-11-30T01:58:39.424Z,0
2016-11-30T01:59:20.076Z,0
2016-11-30T02:00:00.732Z,0
2016-11-30T02:00:41.426Z,0
2016-11-30T02:01:22.140Z,0
2016-11-30T02:02:02.808Z,0
2016-11-30T02:02:43.518Z,0
2016-11-30T02:03:24.229Z,0
2016-11-30T02:04:04.908Z,0
2016-11-30T02:04:45.634Z,0
2016-11-30T02:05:26.343Z,0
2016-11-30T02:06:07.040Z,0
2016-11-30T02:06:47.687Z,0
2016-11-30T02:07:28.343Z,0
2016-11-30T02:08:09.025Z,0
2016-11-30T02:08:49.717Z,0
2016-11-30T02:09:30.420Z,0
2016-11-30T02:10:11.059Z,0
2016-11-30T02:10:51.734Z,0
2016-11-30T02:11:32.419Z,0
2016-11-30T02:12:13.109Z,0
2016-11-30T02:12:53.773Z,0
2016-11-30T02:13:34.482Z,0
2016-11-30T02:14:15.158Z,0
2016-11-30T02:14:55.844Z,0
2016-11-30T02:15:36.513Z,0
2016-11-30T02:16:17.232Z,0
2016-11-30T02:16:57.918Z,0
2016-11-30T02:17:38.621Z,0
2016-11-30T02:18:19.301Z,0
2016-11-30T02:18:59.978Z,0
2016-11-30T02:19:40.673Z,0
2016-11-30T02:20:21.348Z,0
2016-11-30T02:21:02.038Z,0
2016-11-30T02:21:42.704Z,0
2016-11-30T02:22:23.391Z,0
2016-11-30T02:23:04.054Z,0
2016-11-30T02:23:44.725Z,0
2016-11-30T02:24:25.368Z,0
2016-11-30T02:25:06.051Z,0
2016-11-30T02:25:46.727Z,0
2016-11-30T02:26:27.402Z,0
2016-11-30T02:27:08.109Z,0
2016-11-30T02:27:48.778Z,0
2016-11-30T02:28:29.466Z,0
2016-11-30T02:29:10.167Z,0
2016-11-30T02:29:50.820Z,0
2016-11-30T02:30:31.546Z,0
2016-11-30T02:31:12.217Z,0
2016-11-30T02:31:52.904Z,0
2016-11-30T02:32:33.584Z,0
2016-11-30T02:33:14.291Z,0
2016-11-30T02:33:54.957Z,0
2016-11-30T02:34:35.630Z,0
2016-11-30T02:35:16.319Z,0
2016-11-30T02:35:56.983Z,0
2016-11-30T02:36:37.689Z,0
2016-11-30T02:37:18.400Z,0
2016-11-30T02:37:59.055Z,0
2016-11-30T02:38:39.741Z,0
2016-11-30T02:39:20.452Z,0
2016-11-30T02:40:01.111Z,0
2016-11-30T02:40:41.786Z,0
2016-11-30T02:41:22.436Z,0
2016-11-30T02:42:03.114Z,0
2016-11-30T02:42:43.819Z,0
2016-11-30T02:43:24.492Z,0
2016-11-30T02:44:05.188Z,0
2016-11-30T02:44:45.874Z,0
2016-11-30T02:45:26.551Z,0
2016-11-30T02:46:07.271Z,0
2016-11-30T02:46:47.950Z,0
2016-11-30T02:47:28.642Z,0
2016-11-30T02:48:09.380Z,0
2016-11-30T02:48:50.014Z,0
2016-11-30T02:49:30.739Z,0
2016-11-30T02:50:11.393Z,0
2016-11-30T02:50:52.071Z,0
2016-11-30T02:51:32.739Z,0
2016-11-30T02:52:13.401Z,0
2016-11-30T02:52:54.115Z,0
2016-11-30T02:53:34.827Z,0
2016-11-30T02:54:15.462Z,0
2016-11-30T02:54:56.114Z,0
2016-11-30T02:55:36.743Z,0
2016-11-30T02:56:17.407Z,0
2016-11-30T02:56:58.079Z,0
2016-11-30T02:57:38.788Z,0
2016-11-30T02:58:19.499Z,0
2016-11-30T02:59:00.205Z,0
2016-11-30T02:59:40.921Z,0
2016-11-30T03:00:21.614Z,0
2016-11-30T03:01:02.304Z,0
2016-11-30T03:01:42.999Z,0
2016-11-30T03:02:23.716Z,0
2016-11-30T03:03:05.334Z,0
2016-11-30T03:03:46.026Z,0
2016-11-30T03:04:26.674Z,0
2016-11-30T03:05:07.373Z,0
2016-11-30T03:05:48.052Z,0
2016-11-30T03:06:28.689Z,0
2016-11-30T03:07:09.403Z,0
2016-11-30T03:07:50.061Z,0
2016-11-30T03:08:30.760Z,0
2016-11-30T03:09:11.464Z,0
2016-11-30T03:09:52.183Z,0
2016-11-30T03:10:32.821Z,0
2016-11-30T03:11:13.547Z,0
2016-11-30T03:11:54.207Z,0
2016-11-30T03:12:34.886Z,0
2016-11-30T03:13:15.589Z,0
2016-11-30T03:13:56.215Z,0
2016-11-30T03:14:36.928Z,0
2016-11-30T03:15:17.662Z,0
2016-11-30T03:15:58.316Z,0
2016-11-30T03:16:38.976Z,0
2016-11-30T03:17:19.625Z,0
2016-11-30T03:18:00.294Z,0
2016-11-30T03:18:40.980Z,0
2016-11-30T03:19:21.681Z,0
2016-11-30T03:20:02.357Z,0
2016-11-30T03:20:43.025Z,0
2016-11-30T03:21:23.701Z,0
2016-11-30T03:22:04.368Z,0
2016-11-30T03:22:45.016Z,0
2016-11-30T03:23:25.687Z,0
2016-11-30T03:24:06.368Z,0
2016-11-30T03:24:47.012Z,0
2016-11-30T03:25:27.653Z,0
2016-11-30T03:26:08.364Z,0
2016-11-30T03:26:48.989Z,0
2016-11-30T03:27:29.682Z,0
2016-11-30T03:28:10.377Z,0
2016-11-30T03:28:51.061Z,0
2016-11-30T03:29:31.695Z,0
2016-11-30T03:30:12.354Z,0
2016-11-30T03:30:53.087Z,0
2016-11-30T03:31:33.778Z,0
2016-11-30T03:32:14.484Z,0
2016-11-30T03:32:55.200Z,0
2016-11-30T03:33:35.887Z,0
2016-11-30T03:34:16.588Z,0
2016-11-30T03:34:57.214Z,0
2016-11-30T03:35:37.885Z,0
2016-11-30T03:36:18.540Z,0
2016-11-30T03:36:59.209Z,0
2016-11-30T03:37:39.875Z,0
2016-11-30T03:38:20.516Z,0
2016-11-30T03:39:01.209Z,0
2016-11-30T03:39:41.864Z,0
2016-11-30T03:40:22.536Z,0
2016-11-30T03:41:03.231Z,0
2016-11-30T03:41:43.924Z,0
2016-11-30T03:42:24.552Z,0
2016-11-30T03:43:05.247Z,0
2016-11-30T03:43:45.879Z,0
2016-11-30T03:44:26.531Z,0
2016-11-30T03:45:07.252Z,0
2016-11-30T03:45:47.959Z,0
2016-11-30T03:46:28.645Z,0
2016-11-30T03:47:09.318Z,0
2016-11-30T03:47:50.010Z,0
2016-11-30T03:48:30.684Z,0
2016-11-30T03:49:11.377Z,0
2016-11-30T03:49:52.047Z,0
2016-11-30T03:50:32.726Z,0
2016-11-30T03:51:13.342Z,0
2016-11-30T03:51:54.012Z,0
2016-11-30T03:52:34.686Z,0
2016-11-30T03:53:15.329Z,0
2016-11-30T03:53:56.014Z,0
2016-11-30T03:54:36.670Z,0
2016-11-30T03:55:17.360Z,0
2016-11-30T03:55:58.063Z,0
2016-11-30T03:56:38.715Z,0
2016-11-30T03:57:19.353Z,0
2016-11-30T03:58:00.024Z,0
2016-11-30T03:58:40.729Z,0
2016-11-30T03:59:21.433Z,0
2016-11-30T04:00:02.082Z,0
2016-11-30T04:00:42.776Z,0
2016-11-30T04:01:23.421Z,0
2016-11-30T04:02:04.055Z,0
2016-11-30T04:02:44.751Z,0
2016-11-30T04:03:25.419Z,0
2016-11-30T04:04:06.099Z,0
2016-11-30T04:04:46.745Z,0
2016-11-30T04:05:27.462Z,0
2016-11-30T04:06:08.126Z,0
2016-11-30T04:06:48.758Z,0
2016-11-30T04:07:29.436Z,0
2016-11-30T04:08:10.140Z,0
2016-11-30T04:08:50.792Z,0
2016-11-30T04:09:31.457Z,0
2016-11-30T04:10:12.162Z,0
2016-11-30T04:10:52.841Z,0
2016-11-30T04:11:33.536Z,0
2016-11-30T04:12:14.181Z,0
2016-11-30T04:12:54.867Z,0
2016-11-30T04:13:35.523Z,0
2016-11-30T04:14:16.222Z,0
2016-11-30T04:14:56.922Z,0
2016-11-30T04:15:37.583Z,0
2016-11-30T04:16:18.254Z,0
2016-11-30T04:16:58.933Z,0
2016-11-30T04:17:39.631Z,0
2016-11-30T04:18:20.267Z,0
2016-11-30T04:19:00.970Z,0
2016-11-30T04:19:41.657Z,0
2016-11-30T04:20:22.329Z,0
2016-11-30T04:21:03.023Z,0
2016-11-30T04:21:43.726Z,0
2016-11-30T04:22:24.428Z,0
2016-11-30T04:23:05.132Z,0
2016-11-30T04:23:45.797Z,0
2016-11-30T04:24:26.489Z,0
2016-11-30T04:25:07.189Z,0
2016-11-30T04:25:47.858Z,0
2016-11-30T04:26:28.491Z,0
2016-11-30T04:27:09.677Z,0
2016-11-30T04:27:49.793Z,0
2016-11-30T04:28:30.436Z,0
2016-11-30T04:29:11.122Z,0
2016-11-30T04:29:51.768Z,0
2016-11-30T04:30:32.406Z,0
2016-11-30T04:31:13.130Z,0
2016-11-30T04:31:53.809Z,0
2016-11-30T04:32:34.516Z,0
2016-11-30T04:33:15.173Z,0
2016-11-30T04:33:55.855Z,0
2016-11-30T04:34:36.500Z,0
2016-11-30T04:35:17.190Z,0
2016-11-30T04:35:57.902Z,0
2016-11-30T04:36:38.559Z,0
2016-11-30T04:37:19.234Z,0
2016-11-30T04:37:59.947Z,0
2016-11-30T04:38:40.658Z,0
2016-11-30T04:39:21.288Z,0
2016-11-30T04:40:01.999Z,0
2016-11-30T04:40:42.675Z,0
2016-11-30T04:41:23.297Z,0
2016-11-30T04:42:03.957Z,0
2016-11-30T04:42:44.627Z,0
2016-11-30T04:43:25.295Z,0
2016-11-30T04:44:05.961Z,0
2016-11-30T04:44:46.632Z,0
2016-11-30T04:45:27.258Z,0
2016-11-30T04:46:07.944Z,0
2016-11-30T04:46:48.621Z,0
2016-11-30T04:47:29.336Z,0
2016-11-30T04:48:09.968Z,0
2016-11-30T04:48:50.631Z,0
2016-11-30T04:49:31.335Z,0
2016-11-30T04:50:12.059Z,0
2016-11-30T04:50:52.711Z,0
2016-11-30T04:51:33.406Z,0
2016-11-30T04:52:14.044Z,0
2016-11-30T04:52:54.752Z,0
2016-11-30T04:53:35.457Z,0
2016-11-30T04:54:16.144Z,0
2016-11-30T04:54:56.814Z,0
2016-11-30T04:55:37.548Z,0
2016-11-30T04:56:18.179Z,0
2016-11-30T04:56:58.823Z,0
2016-11-30T04:57:39.557Z,0
2016-11-30T04:58:20.211Z,0
2016-11-30T04:59:00.842Z,0
2016-11-30T04:59:41.543Z,0
2016-11-30T05:00:22.205Z,0
2016-11-30T05:01:02.880Z,0
2016-11-30T05:01:43.602Z,0
2016-11-30T05:02:24.294Z,0
2016-11-30T05:03:04.994Z,0
2016-11-30T05:03:45.713Z,0
2016-11-30T05:04:26.380Z,0
2016-11-30T05:05:07.086Z,0
2016-11-30T05:05:47.769Z,0
2016-11-30T05:06:28.421Z,0
2016-11-30T05:07:09.070Z,0
2016-11-30T05:07:49.746Z,0
2016-11-30T05:08:30.445Z,0
2016-11-30T05:09:11.116Z,0
2016-11-30T05:09:51.759Z,0
2016-11-30T05:10:32.401Z,0
2016-11-30T05:11:13.109Z,0
2016-11-30T05:11:53.785Z,0
2016-11-30T05:12:34.452Z,0
2016-11-30T05:13:15.143Z,0
2016-11-30T05:13:55.862Z,0
2016-11-30T05:14:36.512Z,0
2016-11-30T05:15:17.199Z,0
2016-11-30T05:15:57.902Z,0
2016-11-30T05:16:38.567Z,0
2016-11-30T05:17:19.248Z,0
2016-11-30T05:17:59.964Z,0
2016-11-30T05:18:40.665Z,0
2016-11-30T05:19:21.327Z,0
2016-11-30T05:20:02.007Z,0
2016-11-30T05:20:42.672Z,0
2016-11-30T05:21:23.381Z,0
2016-11-30T05:22:04.059Z,0
2016-11-30T05:22:44.739Z,0
2016-11-30T05:23:25.402Z,0
2016-11-30T05:24:06.072Z,0
2016-11-30T05:24:46.797Z,0
2016-11-30T05:25:27.476Z,0
2016-11-30T05:26:08.138Z,0
2016-11-30T05:26:48.827Z,0
2016-11-30T05:27:29.481Z,0
2016-11-30T05:28:10.158Z,0
2016-11-30T05:28:50.840Z,0
2016-11-30T05:29:31.503Z,0
2016-11-30T05:30:12.188Z,0
2016-11-30T05:30:52.848Z,0
2016-11-30T05:31:33.519Z,0
2016-11-30T05:32:14.217Z,0
2016-11-30T05:32:54.865Z,0
2016-11-30T05:33:35.563Z,0
2016-11-30T05:34:16.232Z,0
2016-11-30T05:34:56.911Z,0
2016-11-30T05:35:37.553Z,0
2016-11-30T05:36:18.241Z,0
2016-11-30T05:36:58.954Z,0
2016-11-30T05:37:39.613Z,0
2016-11-30T05:38:20.352Z,0
2016-11-30T05:39:01.019Z,0
2016-11-30T05:39:41.669Z,0
2016-11-30T05:40:22.359Z,0
2016-11-30T05:41:03.079Z,0
2016-11-30T05:41:43.738Z,0
2016-11-30T05:42:24.378Z,0
2016-11-30T05:43:05.046Z,0
2016-11-30T05:43:45.720Z,0
2016-11-30T05:44:26.413Z,0
2016-11-30T05:45:07.067Z,0
2016-11-30T05:45:47.747Z,0
2016-11-30T05:46:28.433Z,0
2016-11-30T05:47:09.091Z,0
2016-11-30T05:47:49.778Z,0
2016-11-30T05:48:30.455Z,0
2016-11-30T05:49:11.186Z,0
2016-11-30T05:49:51.853Z,0
2016-11-30T05:50:32.554Z,0
2016-11-30T05:51:13.207Z,0
2016-11-30T05:51:53.911Z,0
2016-11-30T05:52:34.577Z,0
2016-11-30T05:53:15.271Z,0
2016-11-30T05:53:55.956Z,0
2016-11-30T05:54:36.620Z,0
2016-11-30T05:55:17.298Z,0
2016-11-30T05:55:57.940Z,0
2016-11-30T05:56:38.650Z,0
2016-11-30T05:57:19.312Z,0
2016-11-30T05:57:59.997Z,12
2016-11-30T05:58:40.674Z,12
2016-11-30T05:59:21.359Z,16
2016-11-30T06:00:02.049Z,12
2016-11-30T06:00:42.738Z,12
2016-11-30T06:01:23.397Z,12
2016-11-30T06:02:04.066Z,16
2016-11-30T06:02:44.721Z,16
2016-11-30T06:03:25.442Z,16
2016-11-30T06:04:06.173Z,16
2016-11-30T06:04:46.826Z,16
2016-11-30T06:05:27.501Z,16
2016-11-30T06:06:08.210Z,16
2016-11-30T06:06:48.916Z,16
2016-11-30T06:07:29.596Z,16
2016-11-30T06:08:10.260Z,16
2016-11-30T06:08:50.928Z,16
2016-11-30T06:09:31.595Z,16
2016-11-30T06:10:12.233Z,16
2016-11-30T06:10:52.926Z,16
2016-11-30T06:11:33.635Z,16
2016-11-30T06:12:14.306Z,16
2016-11-30T06:12:55.007Z,16
2016-11-30T06:13:35.662Z,16
2016-11-30T06:14:16.306Z,16
2016-11-30T06:14:57.001Z,16
2016-11-30T06:15:38.405Z,16
2016-11-30T06:16:19.102Z,16
2016-11-30T06:16:59.819Z,16
2016-11-30T06:17:40.479Z,16
2016-11-30T06:18:21.184Z,16
2016-11-30T06:19:01.908Z,16
2016-11-30T06:19:42.581Z,16
2016-11-30T06:20:23.270Z,16
2016-11-30T06:21:03.912Z,16
2016-11-30T06:21:44.546Z,16
2016-11-30T06:22:25.219Z,16
2016-11-30T06:23:05.926Z,16
2016-11-30T06:23:46.596Z,16
2016-11-30T06:24:27.259Z,16
2016-11-30T06:25:07.951Z,16
2016-11-30T06:25:48.629Z,16
2016-11-30T06:26:29.319Z,16
2016-11-30T06:27:10.009Z,16
2016-11-30T06:27:50.691Z,16
2016-11-30T06:28:31.349Z,16
2016-11-30T06:29:12.057Z,16
2016-11-30T06:29:52.732Z,16
2016-11-30T06:30:33.435Z,16
2016-11-30T06:31:14.075Z,16
2016-11-30T06:31:54.736Z,16
2016-11-30T06:32:35.400Z,16
2016-11-30T06:33:16.038Z,16
2016-11-30T06:33:56.744Z,16
2016-11-30T06:34:37.384Z,16
2016-11-30T06:35:18.071Z,16
2016-11-30T06:35:58.715Z,16
2016-11-30T06:36:39.410Z,16
2016-11-30T06:37:20.104Z,16
2016-11-30T06:38:00.820Z,16
2016-11-30T06:38:41.502Z,16
2016-11-30T06:39:22.197Z,16
2016-11-30T06:40:02.865Z,16
2016-11-30T06:40:43.511Z,16
2016-11-30T06:41:24.199Z,16
2016-11-30T06:42:04.852Z,16
2016-11-30T06:42:45.534Z,16
2016-11-30T06:43:26.270Z,16
2016-11-30T06:44:06.985Z,16
2016-11-30T06:44:47.628Z,16
2016-11-30T06:45:28.346Z,16
2016-11-30T06:46:09.030Z,16
2016-11-30T06:46:49.702Z,16
2016-11-30T06:47:30.420Z,16
2016-11-30T06:48:11.185Z,16
2016-11-30T06:48:51.840Z,16
2016-11-30T06:49:32.505Z,16
2016-11-30T06:50:13.180Z,16
2016-11-30T06:50:53.859Z,16
2016-11-30T06:51:34.552Z,16
2016-11-30T06:52:15.214Z,16
2016-11-30T06:52:55.880Z,16
2016-11-30T06:53:36.527Z,16
2016-11-30T06:54:17.274Z,16
2016-11-30T06:54:57.954Z,16
2016-11-30T06:55:38.658Z,16
2016-11-30T06:56:19.312Z,16
2016-11-30T06:56:59.999Z,16
2016-11-30T06:57:40.675Z,16
2016-11-30T06:58:21.349Z,0
2016-11-30T06:59:02.000Z,0
2016-11-30T06:59:42.747Z,0
2016-11-30T07:00:23.418Z,0
2016-11-30T07:01:04.096Z,0
2016-11-30T07:01:44.769Z,0
2016-11-30T07:02:25.469Z,0
2016-11-30T07:03:06.142Z,0
2016-11-30T07:03:46.833Z,0
2016-11-30T07:04:27.530Z,0
2016-11-30T07:05:08.200Z,0
2016-11-30T07:05:48.884Z,0
2016-11-30T07:06:29.597Z,0
2016-11-30T07:07:10.285Z,0
2016-11-30T07:07:50.972Z,0
2016-11-30T07:08:31.651Z,0
2016-11-30T07:09:12.346Z,0
2016-11-30T07:09:53.024Z,0
2016-11-30T07:10:33.664Z,0
2016-11-30T07:11:14.346Z,0
2016-11-30T07:11:55.026Z,0
2016-11-30T07:12:35.676Z,0
2016-11-30T07:13:16.346Z,0
2016-11-30T07:13:57.030Z,0
2016-11-30T07:14:37.714Z,0
2016-11-30T07:15:18.358Z,0
2016-11-30T07:15:59.017Z,0
2016-11-30T07:16:39.755Z,0
2016-11-30T07:17:20.436Z,0
2016-11-30T07:18:01.113Z,0
2016-11-30T07:18:41.751Z,0
2016-11-30T07:19:22.407Z,0
2016-11-30T07:20:03.101Z,0
2016-11-30T07:20:43.763Z,0
2016-11-30T07:21:24.480Z,0
2016-11-30T07:22:05.194Z,464
2016-11-30T07:22:45.866Z,588
2016-11-30T07:23:26.600Z,644
2016-11-30T07:24:07.253Z,664
2016-11-30T07:24:47.957Z,676
2016-11-30T07:25:28.614Z,684
2016-11-30T07:26:09.296Z,692
2016-11-30T07:26:50.029Z,692
2016-11-30T07:27:30.686Z,696
2016-11-30T07:28:11.363Z,700
2016-11-30T07:28:52.136Z,696
2016-11-30T07:29:32.800Z,696
2016-11-30T07:30:13.508Z,700
2016-11-30T07:30:54.240Z,700
2016-11-30T07:31:34.901Z,700
2016-11-30T07:32:15.607Z,700
2016-11-30T07:32:56.307Z,700
2016-11-30T07:33:36.995Z,700
2016-11-30T07:34:17.707Z,700
2016-11-30T07:34:58.396Z,700
2016-11-30T07:35:39.066Z,700
2016-11-30T07:36:19.772Z,700
2016-11-30T07:37:00.465Z,700
2016-11-30T07:37:41.170Z,700
2016-11-30T07:38:21.865Z,700
2016-11-30T07:39:02.576Z,700
2016-11-30T07:39:43.262Z,700
2016-11-30T07:40:23.941Z,700
2016-11-30T07:41:04.660Z,704
2016-11-30T07:41:45.291Z,704
2016-11-30T07:42:26.014Z,704
2016-11-30T07:43:06.691Z,704
2016-11-30T07:43:47.408Z,704
2016-11-30T07:44:28.132Z,704
2016-11-30T07:45:08.821Z,704
2016-11-30T07:45:49.505Z,704
2016-11-30T07:46:30.252Z,700
2016-11-30T07:47:10.965Z,704
2016-11-30T07:47:51.659Z,704
2016-11-30T07:48:32.303Z,704
2016-11-30T07:49:13.010Z,704
2016-11-30T07:49:53.652Z,704
2016-11-30T07:50:34.343Z,704
2016-11-30T07:51:15.082Z,704
2016-11-30T07:51:55.793Z,704
2016-11-30T07:52:36.555Z,704
2016-11-30T07:53:17.259Z,704
2016-11-30T07:53:57.980Z,704
2016-11-30T07:54:38.694Z,704
2016-11-30T07:55:19.378Z,704
2016-11-30T07:56:00.114Z,704
2016-11-30T07:56:40.824Z,704
2016-11-30T07:57:21.507Z,704
2016-11-30T07:58:02.204Z,704
2016-11-30T07:58:42.941Z,704
2016-11-30T07:59:23.664Z,704
2016-11-30T08:00:04.387Z,704
2016-11-30T08:00:45.092Z,708
2016-11-30T08:01:25.760Z,708
2016-11-30T08:02:06.644Z,708
2016-11-30T08:02:47.318Z,704
2016-11-30T08:03:28.013Z,704
2016-11-30T08:04:08.701Z,704
2016-11-30T08:04:49.413Z,704
2016-11-30T08:05:30.135Z,704
2016-11-30T08:06:10.808Z,704
2016-11-30T08:06:51.529Z,704
2016-11-30T08:07:32.208Z,704
2016-11-30T08:08:12.908Z,704
2016-11-30T08:08:53.578Z,704
2016-11-30T08:09:34.294Z,704
2016-11-30T08:10:14.981Z,708
2016-11-30T08:10:55.714Z,708
2016-11-30T08:11:36.351Z,708
2016-11-30T08:12:16.993Z,708
2016-11-30T08:12:57.727Z,708
2016-11-30T08:13:38.415Z,708
2016-11-30T08:14:19.082Z,704
2016-11-30T08:14:59.767Z,704
2016-11-30T08:15:40.444Z,704
2016-11-30T08:16:21.162Z,704
2016-11-30T08:17:01.845Z,704
2016-11-30T08:17:42.547Z,704
2016-11-30T08:18:23.213Z,704
2016-11-30T08:19:03.908Z,704
2016-11-30T08:19:44.700Z,704
2016-11-30T08:20:25.444Z,704
2016-11-30T08:21:06.127Z,708
2016-11-30T08:21:46.820Z,704
2016-11-30T08:22:27.893Z,708
2016-11-30T08:23:08.601Z,704
2016-11-30T08:23:49.288Z,708
2016-11-30T08:24:29.937Z,708
2016-11-30T08:25:10.635Z,708
2016-11-30T08:25:51.335Z,708
2016-11-30T08:26:32.066Z,708
2016-11-30T08:27:12.792Z,708
2016-11-30T08:27:53.490Z,708
2016-11-30T08:28:34.249Z,708
2016-11-30T08:29:14.980Z,708
2016-11-30T08:29:55.695Z,708
2016-11-30T08:30:36.400Z,704
2016-11-30T08:31:17.106Z,704
2016-11-30T08:31:57.795Z,704
2016-11-30T08:32:38.454Z,708
2016-11-30T08:33:19.192Z,708
2016-11-30T08:33:59.948Z,704
2016-11-30T08:34:41.302Z,704
2016-11-30T08:35:21.314Z,704
2016-11-30T08:36:02.803Z,708
2016-11-30T08:36:42.672Z,708
2016-11-30T08:37:23.347Z,708
2016-11-30T08:38:04.106Z,708
2016-11-30T08:38:44.805Z,708
2016-11-30T08:39:25.512Z,708
2016-11-30T08:40:06.156Z,708
2016-11-30T08:40:46.818Z,708
2016-11-30T08:41:27.570Z,708
2016-11-30T08:42:08.253Z,708
2016-11-30T08:42:49.008Z,708
2016-11-30T08:43:29.683Z,708
2016-11-30T08:44:10.401Z,708
2016-11-30T08:44:51.087Z,708
2016-11-30T08:45:31.811Z,708
2016-11-30T08:46:12.489Z,704
2016-11-30T08:46:53.170Z,708
2016-11-30T08:47:33.872Z,708
2016-11-30T08:48:14.612Z,708
2016-11-30T08:48:55.290Z,708
2016-11-30T08:49:36.015Z,708
2016-11-30T08:50:16.742Z,708
2016-11-30T08:50:57.418Z,708
2016-11-30T08:51:38.088Z,708
2016-11-30T08:52:18.778Z,708
2016-11-30T08:52:59.461Z,708
2016-11-30T08:53:40.198Z,708
2016-11-30T08:54:20.935Z,708
2016-11-30T08:55:01.663Z,704
2016-11-30T08:55:42.370Z,708
2016-11-30T08:56:23.072Z,704
2016-11-30T08:57:03.761Z,708
2016-11-30T08:57:45.315Z,708
2016-11-30T08:58:25.140Z,708
2016-11-30T08:59:05.842Z,708
2016-11-30T08:59:46.526Z,708
2016-11-30T09:00:27.170Z,712
2016-11-30T09:01:07.881Z,708
2016-11-30T09:01:48.552Z,712
2016-11-30T09:02:29.291Z,712
2016-11-30T09:03:09.959Z,712
2016-11-30T09:03:50.688Z,712
2016-11-30T09:04:31.382Z,712
2016-11-30T09:05:12.110Z,712
2016-11-30T09:05:52.812Z,712
2016-11-30T09:06:33.542Z,716
2016-11-30T09:07:14.309Z,712
2016-11-30T09:07:54.957Z,712
2016-11-30T09:08:35.655Z,712
2016-11-30T09:09:16.418Z,716
2016-11-30T09:09:57.117Z,712
2016-11-30T09:10:37.753Z,712
2016-11-30T09:11:18.495Z,716
2016-11-30T09:11:59.170Z,716
2016-11-30T09:12:39.963Z,716
2016-11-30T09:13:20.707Z,712
2016-11-30T09:14:01.307Z,712
2016-11-30T09:14:42.246Z,716
2016-11-30T09:15:22.963Z,712
2016-11-30T09:16:03.668Z,712
2016-11-30T09:16:44.303Z,712
2016-11-30T09:17:24.993Z,712
2016-11-30T09:19:43.624Z,716
2016-11-30T09:20:24.271Z,716
2016-11-30T09:21:04.961Z,712
2016-11-30T09:21:45.658Z,716
2016-11-30T09:22:26.352Z,716
2016-11-30T09:23:07.010Z,716
2016-11-30T09:23:47.740Z,716
2016-11-30T09:24:28.405Z,704
2016-11-30T09:25:09.104Z,716
2016-11-30T09:25:49.800Z,716
2016-11-30T09:26:30.547Z,712
2016-11-30T09:27:11.185Z,716
2016-11-30T09:27:51.862Z,716
2016-11-30T09:28:32.539Z,716
2016-11-30T09:29:13.796Z,716
2016-11-30T09:29:53.956Z,716
2016-11-30T09:30:34.655Z,720
2016-11-30T09:31:15.322Z,716
2016-11-30T09:31:55.996Z,716
2016-11-30T09:32:36.883Z,716
2016-11-30T09:33:17.598Z,716
2016-11-30T09:33:58.808Z,716
2016-11-30T09:34:39.033Z,716
2016-11-30T09:35:19.707Z,716
2016-11-30T09:36:00.385Z,716
2016-11-30T09:36:41.113Z,716
2016-11-30T09:37:21.799Z,716
2016-11-30T09:38:02.518Z,716
2016-11-30T09:38:43.246Z,716
2016-11-30T09:39:23.924Z,716
2016-11-30T09:40:04.578Z,716
2016-11-30T09:40:45.302Z,716
2016-11-30T09:41:25.992Z,716
2016-11-30T09:42:06.684Z,716
2016-11-30T09:42:47.313Z,716
2016-11-30T09:43:28.018Z,716
2016-11-30T09:44:08.732Z,716
2016-11-30T09:44:49.425Z,716
2016-11-30T09:45:30.104Z,716
2016-11-30T09:46:10.803Z,716
2016-11-30T09:46:51.508Z,716
2016-11-30T09:47:32.234Z,720
2016-11-30T09:48:13.007Z,720
2016-11-30T09:48:53.743Z,720
2016-11-30T09:49:34.433Z,716
2016-11-30T09:50:15.118Z,720